sensor_id;sensor_type;location;lat;lon;timestamp;P1;durP1;ratioP1;P2;durP2;ratioP2
8159;SDS011;27404;52.398;9.646;2022-08-26T00:00:53;14.32;;;7.88;;
8159;SDS011;27404;52.398;9.646;2022-08-26T00:03:19;12.25;;;8.05;;
8159;SDS011;27404;52.398;9.646;2022-08-26T00:05:45;12.00;;;7.70;;
8159;SDS011;27404;52.398;9.646;2022-08-26T00:08:13;14.48;;;8.18;;
8159;SDS011;27404;52.398;9.646;2022-08-26T00:10:39;16.27;;;8.18;;
8159;SDS011;27404;52.398;9.646;2022-08-26T00:13:06;16.15;;;8.40;;
8159;SDS011;27404;52.398;9.646;2022-08-26T00:15:34;14.93;;;8.97;;
8159;SDS011;27404;52.398;9.646;2022-08-26T00:17:59;12.68;;;7.93;;
8159;SDS011;27404;52.398;9.646;2022-08-26T00:20:26;13.57;;;7.45;;
8159;SDS011;27404;52.398;9.646;2022-08-26T00:22:53;18.43;;;7.83;;
8159;SDS011;27404;52.398;9.646;2022-08-26T00:25:19;17.10;;;8.40;;
8159;SDS011;27404;52.398;9.646;2022-08-26T00:27:45;11.37;;;7.47;;
8159;SDS011;27404;52.398;9.646;2022-08-26T00:30:22;16.63;;;7.77;;
8159;SDS011;27404;52.398;9.646;2022-08-26T00:32:49;13.27;;;8.15;;
8159;SDS011;27404;52.398;9.646;2022-08-26T00:35:14;14.40;;;8.07;;
8159;SDS011;27404;52.398;9.646;2022-08-26T00:37:40;16.40;;;7.90;;
8159;SDS011;27404;52.398;9.646;2022-08-26T00:40:07;15.57;;;7.00;;
8159;SDS011;27404;52.398;9.646;2022-08-26T00:42:35;11.93;;;7.87;;
8159;SDS011;27404;52.398;9.646;2022-08-26T00:45:01;15.27;;;7.83;;
8159;SDS011;27404;52.398;9.646;2022-08-26T00:47:31;13.70;;;8.05;;
8159;SDS011;27404;52.398;9.646;2022-08-26T00:50:00;12.90;;;7.80;;
8159;SDS011;27404;52.398;9.646;2022-08-26T00:52:29;10.60;;;7.63;;
8159;SDS011;27404;52.398;9.646;2022-08-26T00:55:02;15.47;;;8.17;;
8159;SDS011;27404;52.398;9.646;2022-08-26T00:57:33;12.45;;;8.15;;
8159;SDS011;27404;52.398;9.646;2022-08-26T01:00:00;20.45;;;9.00;;
8159;SDS011;27404;52.398;9.646;2022-08-26T01:02:30;13.00;;;7.88;;
8159;SDS011;27404;52.398;9.646;2022-08-26T01:04:58;12.57;;;8.57;;
8159;SDS011;27404;52.398;9.646;2022-08-26T01:07:27;17.10;;;8.05;;
8159;SDS011;27404;52.398;9.646;2022-08-26T01:09:54;12.73;;;7.90;;
8159;SDS011;27404;52.398;9.646;2022-08-26T01:12:20;14.80;;;7.93;;
8159;SDS011;27404;52.398;9.646;2022-08-26T01:14:48;12.73;;;7.43;;
8159;SDS011;27404;52.398;9.646;2022-08-26T01:17:15;12.30;;;8.07;;
8159;SDS011;27404;52.398;9.646;2022-08-26T01:19:45;12.07;;;8.35;;
8159;SDS011;27404;52.398;9.646;2022-08-26T01:22:22;17.38;;;7.75;;
8159;SDS011;27404;52.398;9.646;2022-08-26T01:24:56;12.60;;;8.20;;
8159;SDS011;27404;52.398;9.646;2022-08-26T01:27:24;12.67;;;7.40;;
8159;SDS011;27404;52.398;9.646;2022-08-26T01:29:55;14.27;;;8.05;;
8159;SDS011;27404;52.398;9.646;2022-08-26T01:32:22;19.43;;;8.27;;
8159;SDS011;27404;52.398;9.646;2022-08-26T01:34:49;17.67;;;8.27;;
8159;SDS011;27404;52.398;9.646;2022-08-26T01:37:20;14.17;;;8.10;;
8159;SDS011;27404;52.398;9.646;2022-08-26T01:39:51;14.87;;;8.50;;
8159;SDS011;27404;52.398;9.646;2022-08-26T01:42:19;15.80;;;8.53;;
8159;SDS011;27404;52.398;9.646;2022-08-26T01:44:50;13.80;;;8.43;;
8159;SDS011;27404;52.398;9.646;2022-08-26T01:47:20;15.37;;;8.73;;
8159;SDS011;27404;52.398;9.646;2022-08-26T01:49:49;18.13;;;9.03;;
8159;SDS011;27404;52.398;9.646;2022-08-26T01:52:19;10.93;;;7.60;;
8159;SDS011;27404;52.398;9.646;2022-08-26T01:54:49;16.17;;;8.13;;
8159;SDS011;27404;52.398;9.646;2022-08-26T01:57:15;21.63;;;8.17;;
8159;SDS011;27404;52.398;9.646;2022-08-26T01:59:42;12.93;;;8.47;;
8159;SDS011;27404;52.398;9.646;2022-08-26T02:02:08;14.68;;;9.07;;
8159;SDS011;27404;52.398;9.646;2022-08-26T02:04:35;17.08;;;8.73;;
8159;SDS011;27404;52.398;9.646;2022-08-26T02:07:06;14.65;;;8.60;;
8159;SDS011;27404;52.398;9.646;2022-08-26T02:09:36;14.40;;;8.63;;
8159;SDS011;27404;52.398;9.646;2022-08-26T02:12:03;12.33;;;8.27;;
8159;SDS011;27404;52.398;9.646;2022-08-26T02:14:32;16.37;;;8.47;;
8159;SDS011;27404;52.398;9.646;2022-08-26T02:17:00;18.60;;;9.03;;
8159;SDS011;27404;52.398;9.646;2022-08-26T02:19:29;15.83;;;8.90;;
8159;SDS011;27404;52.398;9.646;2022-08-26T02:22:02;16.10;;;8.50;;
8159;SDS011;27404;52.398;9.646;2022-08-26T02:24:44;11.47;;;8.10;;
8159;SDS011;27404;52.398;9.646;2022-08-26T02:27:13;16.53;;;9.53;;
8159;SDS011;27404;52.398;9.646;2022-08-26T02:29:42;15.60;;;8.73;;
8159;SDS011;27404;52.398;9.646;2022-08-26T02:32:11;12.70;;;8.20;;
8159;SDS011;27404;52.398;9.646;2022-08-26T02:34:37;13.77;;;8.90;;
8159;SDS011;27404;52.398;9.646;2022-08-26T02:37:04;18.33;;;8.80;;
8159;SDS011;27404;52.398;9.646;2022-08-26T02:39:32;12.80;;;8.20;;
8159;SDS011;27404;52.398;9.646;2022-08-26T02:41:58;15.57;;;8.93;;
8159;SDS011;27404;52.398;9.646;2022-08-26T02:44:24;13.57;;;8.70;;
8159;SDS011;27404;52.398;9.646;2022-08-26T02:46:50;13.47;;;8.47;;
8159;SDS011;27404;52.398;9.646;2022-08-26T02:49:17;14.00;;;9.90;;
8159;SDS011;27404;52.398;9.646;2022-08-26T02:51:43;14.27;;;9.10;;
8159;SDS011;27404;52.398;9.646;2022-08-26T02:54:10;17.07;;;8.70;;
8159;SDS011;27404;52.398;9.646;2022-08-26T02:56:36;21.50;;;9.13;;
8159;SDS011;27404;52.398;9.646;2022-08-26T02:59:02;18.33;;;9.53;;
8159;SDS011;27404;52.398;9.646;2022-08-26T03:01:29;14.60;;;9.17;;
8159;SDS011;27404;52.398;9.646;2022-08-26T03:03:57;19.30;;;9.40;;
8159;SDS011;27404;52.398;9.646;2022-08-26T03:06:23;18.47;;;9.60;;
8159;SDS011;27404;52.398;9.646;2022-08-26T03:08:50;14.27;;;9.27;;
8159;SDS011;27404;52.398;9.646;2022-08-26T03:11:16;16.57;;;9.33;;
8159;SDS011;27404;52.398;9.646;2022-08-26T03:13:43;12.40;;;9.17;;
8159;SDS011;27404;52.398;9.646;2022-08-26T03:16:10;20.20;;;9.10;;
8159;SDS011;27404;52.398;9.646;2022-08-26T03:18:35;12.77;;;9.47;;
8159;SDS011;27404;52.398;9.646;2022-08-26T03:21:14;14.57;;;9.37;;
8159;SDS011;27404;52.398;9.646;2022-08-26T03:23:42;12.00;;;8.50;;
8159;SDS011;27404;52.398;9.646;2022-08-26T03:26:09;18.43;;;8.67;;
8159;SDS011;27404;52.398;9.646;2022-08-26T03:28:37;12.77;;;9.53;;
8159;SDS011;27404;52.398;9.646;2022-08-26T03:31:23;12.60;;;9.03;;
8159;SDS011;27404;52.398;9.646;2022-08-26T03:33:48;15.47;;;9.87;;
8159;SDS011;27404;52.398;9.646;2022-08-26T03:36:14;16.67;;;9.63;;
8159;SDS011;27404;52.398;9.646;2022-08-26T03:38:40;21.23;;;10.07;;
8159;SDS011;27404;52.398;9.646;2022-08-26T03:41:07;16.50;;;9.33;;
8159;SDS011;27404;52.398;9.646;2022-08-26T03:43:32;17.57;;;9.13;;
8159;SDS011;27404;52.398;9.646;2022-08-26T03:45:58;21.03;;;9.87;;
8159;SDS011;27404;52.398;9.646;2022-08-26T03:48:29;19.13;;;9.80;;
8159;SDS011;27404;52.398;9.646;2022-08-26T03:50:54;13.77;;;9.30;;
8159;SDS011;27404;52.398;9.646;2022-08-26T03:53:20;18.40;;;9.40;;
8159;SDS011;27404;52.398;9.646;2022-08-26T03:55:45;22.93;;;9.70;;
8159;SDS011;27404;52.398;9.646;2022-08-26T03:58:11;19.67;;;9.87;;
8159;SDS011;27404;52.398;9.646;2022-08-26T04:00:36;14.73;;;9.20;;
8159;SDS011;27404;52.398;9.646;2022-08-26T04:03:02;18.13;;;9.47;;
8159;SDS011;27404;52.398;9.646;2022-08-26T04:05:27;19.87;;;9.90;;
8159;SDS011;27404;52.398;9.646;2022-08-26T04:07:53;15.07;;;9.87;;
8159;SDS011;27404;52.398;9.646;2022-08-26T04:10:19;17.53;;;10.10;;
8159;SDS011;27404;52.398;9.646;2022-08-26T04:12:48;16.33;;;9.67;;
8159;SDS011;27404;52.398;9.646;2022-08-26T04:15:15;22.03;;;10.03;;
8159;SDS011;27404;52.398;9.646;2022-08-26T04:17:42;17.60;;;9.90;;
8159;SDS011;27404;52.398;9.646;2022-08-26T04:20:08;17.60;;;10.40;;
8159;SDS011;27404;52.398;9.646;2022-08-26T04:22:37;15.40;;;9.13;;
8159;SDS011;27404;52.398;9.646;2022-08-26T04:25:04;17.17;;;9.13;;
8159;SDS011;27404;52.398;9.646;2022-08-26T04:27:29;13.37;;;9.77;;
8159;SDS011;27404;52.398;9.646;2022-08-26T04:29:55;20.83;;;9.70;;
8159;SDS011;27404;52.398;9.646;2022-08-26T04:32:20;15.90;;;9.13;;
8159;SDS011;27404;52.398;9.646;2022-08-26T04:34:46;17.47;;;9.83;;
8159;SDS011;27404;52.398;9.646;2022-08-26T04:37:11;26.23;;;10.20;;
8159;SDS011;27404;52.398;9.646;2022-08-26T04:39:37;16.00;;;10.37;;
8159;SDS011;27404;52.398;9.646;2022-08-26T04:42:02;13.63;;;9.83;;
8159;SDS011;27404;52.398;9.646;2022-08-26T04:44:28;14.43;;;9.37;;
8159;SDS011;27404;52.398;9.646;2022-08-26T04:46:54;17.27;;;10.00;;
8159;SDS011;27404;52.398;9.646;2022-08-26T04:49:20;23.17;;;9.40;;
8159;SDS011;27404;52.398;9.646;2022-08-26T04:51:46;17.03;;;9.33;;
8159;SDS011;27404;52.398;9.646;2022-08-26T04:54:13;19.17;;;9.10;;
8159;SDS011;27404;52.398;9.646;2022-08-26T04:56:40;29.23;;;9.70;;
8159;SDS011;27404;52.398;9.646;2022-08-26T04:59:08;19.57;;;9.37;;
8159;SDS011;27404;52.398;9.646;2022-08-26T05:01:43;19.87;;;9.77;;
8159;SDS011;27404;52.398;9.646;2022-08-26T05:04:13;17.37;;;10.10;;
8159;SDS011;27404;52.398;9.646;2022-08-26T05:06:39;22.23;;;9.23;;
8159;SDS011;27404;52.398;9.646;2022-08-26T05:09:04;22.20;;;9.60;;
8159;SDS011;27404;52.398;9.646;2022-08-26T05:11:30;16.75;;;8.85;;
8159;SDS011;27404;52.398;9.646;2022-08-26T05:13:56;11.70;;;8.80;;
8159;SDS011;27404;52.398;9.646;2022-08-26T05:16:21;18.25;;;9.02;;
8159;SDS011;27404;52.398;9.646;2022-08-26T05:18:46;21.25;;;9.38;;
8159;SDS011;27404;52.398;9.646;2022-08-26T05:21:21;18.85;;;8.55;;
8159;SDS011;27404;52.398;9.646;2022-08-26T05:23:49;24.33;;;8.73;;
8159;SDS011;27404;52.398;9.646;2022-08-26T05:26:17;14.80;;;8.60;;
8159;SDS011;27404;52.398;9.646;2022-08-26T05:28:43;18.60;;;8.43;;
8159;SDS011;27404;52.398;9.646;2022-08-26T05:31:12;24.77;;;8.75;;
8159;SDS011;27404;52.398;9.646;2022-08-26T05:33:40;14.52;;;8.85;;
8159;SDS011;27404;52.398;9.646;2022-08-26T05:36:07;13.35;;;8.20;;
8159;SDS011;27404;52.398;9.646;2022-08-26T05:38:34;13.90;;;8.55;;
8159;SDS011;27404;52.398;9.646;2022-08-26T05:40:59;13.13;;;8.57;;
8159;SDS011;27404;52.398;9.646;2022-08-26T05:43:25;19.23;;;9.73;;
8159;SDS011;27404;52.398;9.646;2022-08-26T05:45:50;24.77;;;10.60;;
8159;SDS011;27404;52.398;9.646;2022-08-26T05:48:16;24.63;;;10.13;;
8159;SDS011;27404;52.398;9.646;2022-08-26T05:50:45;19.73;;;9.30;;
8159;SDS011;27404;52.398;9.646;2022-08-26T05:53:13;13.68;;;8.48;;
8159;SDS011;27404;52.398;9.646;2022-08-26T05:55:50;23.80;;;10.45;;
8159;SDS011;27404;52.398;9.646;2022-08-26T05:58:19;15.02;;;9.77;;
8159;SDS011;27404;52.398;9.646;2022-08-26T06:00:54;17.83;;;9.83;;
8159;SDS011;27404;52.398;9.646;2022-08-26T06:03:31;18.50;;;10.60;;
8159;SDS011;27404;52.398;9.646;2022-08-26T06:06:06;19.27;;;9.43;;
8159;SDS011;27404;52.398;9.646;2022-08-26T06:08:33;17.77;;;10.17;;
8159;SDS011;27404;52.398;9.646;2022-08-26T06:11:01;20.47;;;10.20;;
8159;SDS011;27404;52.398;9.646;2022-08-26T06:13:29;18.50;;;10.07;;
8159;SDS011;27404;52.398;9.646;2022-08-26T06:15:54;20.23;;;9.27;;
8159;SDS011;27404;52.398;9.646;2022-08-26T06:18:24;16.17;;;9.37;;
8159;SDS011;27404;52.398;9.646;2022-08-26T06:20:56;19.05;;;10.35;;
8159;SDS011;27404;52.398;9.646;2022-08-26T06:23:23;17.10;;;9.27;;
8159;SDS011;27404;52.398;9.646;2022-08-26T06:26:08;24.40;;;12.17;;
8159;SDS011;27404;52.398;9.646;2022-08-26T06:28:34;21.52;;;10.85;;
8159;SDS011;27404;52.398;9.646;2022-08-26T06:31:00;21.63;;;11.83;;
8159;SDS011;27404;52.398;9.646;2022-08-26T06:33:26;21.65;;;11.02;;
8159;SDS011;27404;52.398;9.646;2022-08-26T06:35:53;20.67;;;10.27;;
8159;SDS011;27404;52.398;9.646;2022-08-26T06:38:19;19.13;;;9.60;;
8159;SDS011;27404;52.398;9.646;2022-08-26T06:40:49;19.13;;;10.00;;
8159;SDS011;27404;52.398;9.646;2022-08-26T06:43:21;21.27;;;10.32;;
8159;SDS011;27404;52.398;9.646;2022-08-26T06:45:50;17.85;;;10.23;;
8159;SDS011;27404;52.398;9.646;2022-08-26T06:48:23;17.83;;;10.63;;
8159;SDS011;27404;52.398;9.646;2022-08-26T06:50:48;18.55;;;9.48;;
8159;SDS011;27404;52.398;9.646;2022-08-26T06:53:14;21.27;;;11.13;;
8159;SDS011;27404;52.398;9.646;2022-08-26T06:55:41;20.17;;;10.63;;
8159;SDS011;27404;52.398;9.646;2022-08-26T06:58:09;21.02;;;10.77;;
8159;SDS011;27404;52.398;9.646;2022-08-26T07:00:36;15.95;;;10.10;;
8159;SDS011;27404;52.398;9.646;2022-08-26T07:03:03;13.70;;;9.65;;
8159;SDS011;27404;52.398;9.646;2022-08-26T07:05:30;18.52;;;10.10;;
8159;SDS011;27404;52.398;9.646;2022-08-26T07:07:56;18.48;;;9.90;;
8159;SDS011;27404;52.398;9.646;2022-08-26T07:10:23;20.17;;;11.35;;
8159;SDS011;27404;52.398;9.646;2022-08-26T07:12:49;20.67;;;10.77;;
8159;SDS011;27404;52.398;9.646;2022-08-26T07:15:14;16.08;;;10.35;;
8159;SDS011;27404;52.398;9.646;2022-08-26T07:17:40;18.80;;;10.60;;
8159;SDS011;27404;52.398;9.646;2022-08-26T07:20:05;13.80;;;10.50;;
8159;SDS011;27404;52.398;9.646;2022-08-26T07:22:32;14.77;;;10.13;;
8159;SDS011;27404;52.398;9.646;2022-08-26T07:24:59;24.05;;;10.73;;
8159;SDS011;27404;52.398;9.646;2022-08-26T07:27:24;16.27;;;10.68;;
8159;SDS011;27404;52.398;9.646;2022-08-26T07:29:50;18.83;;;10.93;;
8159;SDS011;27404;52.398;9.646;2022-08-26T07:32:20;20.08;;;10.60;;
8159;SDS011;27404;52.398;9.646;2022-08-26T07:34:46;22.67;;;10.10;;
8159;SDS011;27404;52.398;9.646;2022-08-26T07:37:12;22.50;;;10.65;;
8159;SDS011;27404;52.398;9.646;2022-08-26T07:39:38;18.48;;;9.95;;
8159;SDS011;27404;52.398;9.646;2022-08-26T07:42:05;19.58;;;10.98;;
8159;SDS011;27404;52.398;9.646;2022-08-26T07:44:32;23.95;;;12.02;;
8159;SDS011;27404;52.398;9.646;2022-08-26T07:46:58;18.30;;;10.48;;
8159;SDS011;27404;52.398;9.646;2022-08-26T07:49:24;20.95;;;10.20;;
8159;SDS011;27404;52.398;9.646;2022-08-26T07:51:51;22.00;;;10.68;;
8159;SDS011;27404;52.398;9.646;2022-08-26T07:54:17;18.77;;;9.98;;
8159;SDS011;27404;52.398;9.646;2022-08-26T07:56:43;17.88;;;10.63;;
8159;SDS011;27404;52.398;9.646;2022-08-26T07:59:09;20.75;;;10.13;;
8159;SDS011;27404;52.398;9.646;2022-08-26T08:01:36;20.38;;;9.57;;
8159;SDS011;27404;52.398;9.646;2022-08-26T08:04:02;15.55;;;9.85;;
8159;SDS011;27404;52.398;9.646;2022-08-26T08:06:30;21.63;;;10.07;;
8159;SDS011;27404;52.398;9.646;2022-08-26T08:08:56;15.07;;;9.70;;
8159;SDS011;27404;52.398;9.646;2022-08-26T08:11:22;19.63;;;10.10;;
8159;SDS011;27404;52.398;9.646;2022-08-26T08:13:50;17.13;;;10.02;;
8159;SDS011;27404;52.398;9.646;2022-08-26T08:16:16;23.27;;;9.45;;
8159;SDS011;27404;52.398;9.646;2022-08-26T08:18:41;19.88;;;9.95;;
8159;SDS011;27404;52.398;9.646;2022-08-26T08:21:07;20.58;;;9.68;;
8159;SDS011;27404;52.398;9.646;2022-08-26T08:23:32;29.45;;;10.90;;
8159;SDS011;27404;52.398;9.646;2022-08-26T08:26:05;23.58;;;9.73;;
8159;SDS011;27404;52.398;9.646;2022-08-26T08:28:33;17.55;;;9.82;;
8159;SDS011;27404;52.398;9.646;2022-08-26T08:30:59;24.02;;;10.98;;
8159;SDS011;27404;52.398;9.646;2022-08-26T08:33:26;21.40;;;9.95;;
8159;SDS011;27404;52.398;9.646;2022-08-26T08:35:54;21.65;;;9.85;;
8159;SDS011;27404;52.398;9.646;2022-08-26T08:38:21;22.73;;;10.52;;
8159;SDS011;27404;52.398;9.646;2022-08-26T08:40:46;17.95;;;9.55;;
8159;SDS011;27404;52.398;9.646;2022-08-26T08:43:26;22.15;;;10.57;;
8159;SDS011;27404;52.398;9.646;2022-08-26T08:45:58;24.20;;;10.68;;
8159;SDS011;27404;52.398;9.646;2022-08-26T08:48:28;18.40;;;9.75;;
8159;SDS011;27404;52.398;9.646;2022-08-26T08:51:09;14.05;;;8.55;;
8159;SDS011;27404;52.398;9.646;2022-08-26T08:53:45;20.00;;;9.68;;
8159;SDS011;27404;52.398;9.646;2022-08-26T08:56:32;31.75;;;9.80;;
8159;SDS011;27404;52.398;9.646;2022-08-26T09:07:35;15.50;;;8.65;;
8159;SDS011;27404;52.398;9.646;2022-08-26T09:12:56;22.10;;;8.40;;
8159;SDS011;27404;52.398;9.646;2022-08-26T09:15:25;20.15;;;9.10;;
8159;SDS011;27404;52.398;9.646;2022-08-26T09:18:00;22.30;;;8.63;;
8159;SDS011;27404;52.398;9.646;2022-08-26T09:20:39;17.80;;;8.90;;
8159;SDS011;27404;52.398;9.646;2022-08-26T09:23:13;21.85;;;8.93;;
8159;SDS011;27404;52.398;9.646;2022-08-26T09:25:46;23.92;;;8.75;;
8159;SDS011;27404;52.398;9.646;2022-08-26T09:28:22;20.20;;;8.30;;
8159;SDS011;27404;52.398;9.646;2022-08-26T09:33:30;16.48;;;7.38;;
8159;SDS011;27404;52.398;9.646;2022-08-26T09:38:39;13.15;;;6.70;;
8159;SDS011;27404;52.398;9.646;2022-08-26T09:41:06;17.40;;;7.35;;
8159;SDS011;27404;52.398;9.646;2022-08-26T09:46:35;17.98;;;7.00;;
8159;SDS011;27404;52.398;9.646;2022-08-26T09:52:10;19.40;;;7.85;;
8159;SDS011;27404;52.398;9.646;2022-08-26T09:54:40;17.35;;;7.68;;
8159;SDS011;27404;52.398;9.646;2022-08-26T09:59:49;16.13;;;6.95;;
8159;SDS011;27404;52.398;9.646;2022-08-26T10:02:16;21.38;;;6.93;;
8159;SDS011;27404;52.398;9.646;2022-08-26T10:04:51;17.77;;;7.25;;
8159;SDS011;27404;52.398;9.646;2022-08-26T10:10:03;21.13;;;7.40;;
8159;SDS011;27404;52.398;9.646;2022-08-26T10:12:33;24.25;;;7.57;;
8159;SDS011;27404;52.398;9.646;2022-08-26T10:15:03;23.20;;;7.90;;
8159;SDS011;27404;52.398;9.646;2022-08-26T10:17:40;20.92;;;7.70;;
8159;SDS011;27404;52.398;9.646;2022-08-26T10:20:17;21.88;;;8.02;;
8159;SDS011;27404;52.398;9.646;2022-08-26T10:23:01;22.90;;;7.47;;
8159;SDS011;27404;52.398;9.646;2022-08-26T10:25:33;25.83;;;7.60;;
8159;SDS011;27404;52.398;9.646;2022-08-26T10:28:53;28.00;;;7.75;;
8159;SDS011;27404;52.398;9.646;2022-08-26T10:31:17;24.17;;;7.75;;
8159;SDS011;27404;52.398;9.646;2022-08-26T10:33:48;26.00;;;7.63;;
8159;SDS011;27404;52.398;9.646;2022-08-26T10:36:15;29.42;;;8.27;;
8159;SDS011;27404;52.398;9.646;2022-08-26T10:39:03;26.60;;;6.90;;
8159;SDS011;27404;52.398;9.646;2022-08-26T10:41:32;22.70;;;7.07;;
8159;SDS011;27404;52.398;9.646;2022-08-26T10:44:04;33.22;;;7.88;;
8159;SDS011;27404;52.398;9.646;2022-08-26T10:46:43;28.73;;;6.47;;
8159;SDS011;27404;52.398;9.646;2022-08-26T10:49:15;19.50;;;7.00;;
8159;SDS011;27404;52.398;9.646;2022-08-26T10:51:56;30.08;;;7.32;;
8159;SDS011;27404;52.398;9.646;2022-08-26T10:54:35;30.20;;;7.63;;
8159;SDS011;27404;52.398;9.646;2022-08-26T10:57:16;30.88;;;7.93;;
8159;SDS011;27404;52.398;9.646;2022-08-26T11:04:43;25.40;;;7.35;;
8159;SDS011;27404;52.398;9.646;2022-08-26T11:09:56;35.95;;;7.65;;
8159;SDS011;27404;52.398;9.646;2022-08-26T11:15:04;28.17;;;7.43;;
8159;SDS011;27404;52.398;9.646;2022-08-26T11:17:58;26.27;;;7.72;;
8159;SDS011;27404;52.398;9.646;2022-08-26T11:20:58;31.90;;;7.30;;
8159;SDS011;27404;52.398;9.646;2022-08-26T11:28:32;24.13;;;7.43;;
8159;SDS011;27404;52.398;9.646;2022-08-26T11:31:00;27.95;;;6.75;;
8159;SDS011;27404;52.398;9.646;2022-08-26T11:36:08;20.67;;;7.05;;
8159;SDS011;27404;52.398;9.646;2022-08-26T11:38:35;25.00;;;7.70;;
8159;SDS011;27404;52.398;9.646;2022-08-26T11:41:07;25.45;;;7.57;;
8159;SDS011;27404;52.398;9.646;2022-08-26T11:43:36;23.60;;;6.88;;
8159;SDS011;27404;52.398;9.646;2022-08-26T11:46:04;29.20;;;6.80;;
8159;SDS011;27404;52.398;9.646;2022-08-26T11:48:34;20.52;;;6.15;;
8159;SDS011;27404;52.398;9.646;2022-08-26T11:53:31;16.83;;;6.75;;
8159;SDS011;27404;52.398;9.646;2022-08-26T11:56:14;20.52;;;7.05;;
8159;SDS011;27404;52.398;9.646;2022-08-26T11:59:01;25.45;;;6.38;;
8159;SDS011;27404;52.398;9.646;2022-08-26T12:01:32;17.77;;;6.45;;
8159;SDS011;27404;52.398;9.646;2022-08-26T12:04:02;19.08;;;5.72;;
8159;SDS011;27404;52.398;9.646;2022-08-26T12:06:31;19.35;;;6.40;;
8159;SDS011;27404;52.398;9.646;2022-08-26T12:09:01;20.98;;;7.63;;
8159;SDS011;27404;52.398;9.646;2022-08-26T12:11:33;17.80;;;6.03;;
8159;SDS011;27404;52.398;9.646;2022-08-26T12:14:03;18.00;;;5.95;;
8159;SDS011;27404;52.398;9.646;2022-08-26T12:16:36;13.77;;;5.80;;
8159;SDS011;27404;52.398;9.646;2022-08-26T12:19:23;18.42;;;6.93;;
8159;SDS011;27404;52.398;9.646;2022-08-26T12:22:06;16.08;;;6.60;;
8159;SDS011;27404;52.398;9.646;2022-08-26T12:24:58;23.15;;;6.75;;
8159;SDS011;27404;52.398;9.646;2022-08-26T12:30:04;16.02;;;6.00;;
8159;SDS011;27404;52.398;9.646;2022-08-26T12:32:33;22.17;;;6.80;;
8159;SDS011;27404;52.398;9.646;2022-08-26T12:35:00;16.77;;;6.45;;
8159;SDS011;27404;52.398;9.646;2022-08-26T12:37:28;25.55;;;7.30;;
8159;SDS011;27404;52.398;9.646;2022-08-26T12:40:23;16.90;;;7.53;;
8159;SDS011;27404;52.398;9.646;2022-08-26T12:42:48;18.75;;;6.20;;
8159;SDS011;27404;52.398;9.646;2022-08-26T12:45:14;21.33;;;7.18;;
8159;SDS011;27404;52.398;9.646;2022-08-26T12:47:57;26.30;;;8.05;;
8159;SDS011;27404;52.398;9.646;2022-08-26T12:50:26;20.48;;;8.00;;
8159;SDS011;27404;52.398;9.646;2022-08-26T12:53:01;21.00;;;6.22;;
8159;SDS011;27404;52.398;9.646;2022-08-26T13:01:25;17.55;;;6.68;;
8159;SDS011;27404;52.398;9.646;2022-08-26T13:03:29;20.83;;;7.38;;
8159;SDS011;27404;52.398;9.646;2022-08-26T13:06:07;18.23;;;6.80;;
8159;SDS011;27404;52.398;9.646;2022-08-26T13:08:33;19.02;;;6.78;;
8159;SDS011;27404;52.398;9.646;2022-08-26T13:11:07;14.80;;;6.43;;
8159;SDS011;27404;52.398;9.646;2022-08-26T13:13:35;18.85;;;6.63;;
8159;SDS011;27404;52.398;9.646;2022-08-26T13:16:01;20.13;;;7.10;;
8159;SDS011;27404;52.398;9.646;2022-08-26T13:18:27;18.38;;;6.25;;
8159;SDS011;27404;52.398;9.646;2022-08-26T13:20:53;22.23;;;7.32;;
8159;SDS011;27404;52.398;9.646;2022-08-26T13:23:19;17.85;;;5.88;;
8159;SDS011;27404;52.398;9.646;2022-08-26T13:25:47;15.10;;;6.03;;
8159;SDS011;27404;52.398;9.646;2022-08-26T13:28:13;13.90;;;6.18;;
8159;SDS011;27404;52.398;9.646;2022-08-26T13:30:39;22.60;;;6.78;;
8159;SDS011;27404;52.398;9.646;2022-08-26T13:33:08;12.98;;;5.63;;
8159;SDS011;27404;52.398;9.646;2022-08-26T13:35:34;18.48;;;6.40;;
8159;SDS011;27404;52.398;9.646;2022-08-26T13:37:59;20.67;;;6.28;;
8159;SDS011;27404;52.398;9.646;2022-08-26T13:40:24;18.60;;;6.88;;
8159;SDS011;27404;52.398;9.646;2022-08-26T13:42:50;21.55;;;6.28;;
8159;SDS011;27404;52.398;9.646;2022-08-26T13:45:16;22.92;;;7.22;;
8159;SDS011;27404;52.398;9.646;2022-08-26T13:47:41;13.20;;;6.15;;
8159;SDS011;27404;52.398;9.646;2022-08-26T13:50:07;23.15;;;6.50;;
8159;SDS011;27404;52.398;9.646;2022-08-26T13:52:32;18.05;;;6.15;;
8159;SDS011;27404;52.398;9.646;2022-08-26T13:54:58;17.40;;;6.10;;
8159;SDS011;27404;52.398;9.646;2022-08-26T13:57:24;13.80;;;5.47;;
8159;SDS011;27404;52.398;9.646;2022-08-26T13:59:52;17.23;;;5.75;;
8159;SDS011;27404;52.398;9.646;2022-08-26T14:02:18;16.42;;;6.10;;
8159;SDS011;27404;52.398;9.646;2022-08-26T14:04:44;21.33;;;7.20;;
8159;SDS011;27404;52.398;9.646;2022-08-26T14:07:09;17.50;;;7.00;;
8159;SDS011;27404;52.398;9.646;2022-08-26T14:09:35;18.15;;;7.47;;
8159;SDS011;27404;52.398;9.646;2022-08-26T14:12:00;16.85;;;6.80;;
8159;SDS011;27404;52.398;9.646;2022-08-26T14:14:25;15.07;;;6.55;;
8159;SDS011;27404;52.398;9.646;2022-08-26T14:16:51;16.60;;;8.25;;
8159;SDS011;27404;52.398;9.646;2022-08-26T14:19:17;13.75;;;7.00;;
8159;SDS011;27404;52.398;9.646;2022-08-26T14:21:43;13.30;;;6.43;;
8159;SDS011;27404;52.398;9.646;2022-08-26T14:24:08;18.40;;;7.38;;
8159;SDS011;27404;52.398;9.646;2022-08-26T14:26:34;16.33;;;6.97;;
8159;SDS011;27404;52.398;9.646;2022-08-26T14:29:00;16.75;;;7.72;;
8159;SDS011;27404;52.398;9.646;2022-08-26T14:31:28;13.27;;;7.57;;
8159;SDS011;27404;52.398;9.646;2022-08-26T14:34:00;21.83;;;7.47;;
8159;SDS011;27404;52.398;9.646;2022-08-26T14:36:28;16.73;;;7.10;;
8159;SDS011;27404;52.398;9.646;2022-08-26T14:38:56;14.13;;;7.10;;
8159;SDS011;27404;52.398;9.646;2022-08-26T14:41:30;17.13;;;6.53;;
8159;SDS011;27404;52.398;9.646;2022-08-26T14:43:58;13.57;;;6.93;;
8159;SDS011;27404;52.398;9.646;2022-08-26T14:46:39;13.70;;;6.70;;
8159;SDS011;27404;52.398;9.646;2022-08-26T14:49:07;17.08;;;7.43;;
8159;SDS011;27404;52.398;9.646;2022-08-26T14:51:33;14.18;;;7.72;;
8159;SDS011;27404;52.398;9.646;2022-08-26T14:53:58;17.50;;;7.68;;
8159;SDS011;27404;52.398;9.646;2022-08-26T14:56:38;15.02;;;7.28;;
8159;SDS011;27404;52.398;9.646;2022-08-26T14:59:10;13.70;;;6.97;;
8159;SDS011;27404;52.398;9.646;2022-08-26T15:01:36;14.02;;;7.03;;
8159;SDS011;27404;52.398;9.646;2022-08-26T15:04:01;17.35;;;7.60;;
8159;SDS011;27404;52.398;9.646;2022-08-26T15:06:28;17.50;;;7.13;;
8159;SDS011;27404;52.398;9.646;2022-08-26T15:08:55;22.58;;;7.75;;
8159;SDS011;27404;52.398;9.646;2022-08-26T15:11:20;18.67;;;7.35;;
8159;SDS011;27404;52.398;9.646;2022-08-26T15:13:46;15.35;;;6.55;;
8159;SDS011;27404;52.398;9.646;2022-08-26T15:16:12;14.88;;;6.68;;
8159;SDS011;27404;52.398;9.646;2022-08-26T15:18:38;16.10;;;7.30;;
8159;SDS011;27404;52.398;9.646;2022-08-26T15:21:04;15.90;;;6.65;;
8159;SDS011;27404;52.398;9.646;2022-08-26T15:23:31;15.60;;;7.03;;
8159;SDS011;27404;52.398;9.646;2022-08-26T15:25:57;16.40;;;6.82;;
8159;SDS011;27404;52.398;9.646;2022-08-26T15:28:23;14.40;;;7.22;;
8159;SDS011;27404;52.398;9.646;2022-08-26T15:30:48;17.02;;;6.65;;
8159;SDS011;27404;52.398;9.646;2022-08-26T15:33:15;14.05;;;7.10;;
8159;SDS011;27404;52.398;9.646;2022-08-26T15:35:41;15.32;;;7.20;;
8159;SDS011;27404;52.398;9.646;2022-08-26T15:38:07;14.80;;;6.93;;
8159;SDS011;27404;52.398;9.646;2022-08-26T15:40:32;14.25;;;6.28;;
8159;SDS011;27404;52.398;9.646;2022-08-26T15:42:58;15.02;;;7.40;;
8159;SDS011;27404;52.398;9.646;2022-08-26T15:45:24;14.98;;;6.70;;
8159;SDS011;27404;52.398;9.646;2022-08-26T15:47:49;15.50;;;7.38;;
8159;SDS011;27404;52.398;9.646;2022-08-26T15:50:15;19.27;;;7.15;;
8159;SDS011;27404;52.398;9.646;2022-08-26T15:52:40;17.45;;;8.23;;